sensor_id;sensor_type;location;lat;lon;timestamp;pressure;altitude;pressure_sealevel;temperature;humidity
43147;BME280;28752;48.266;7.402;2022-10-15T00:00:39;98790.63;;;15.84;100.00
43147;BME280;28752;48.266;7.402;2022-10-15T00:03:05;98803.81;;;15.92;100.00
43147;BME280;28752;48.266;7.402;2022-10-15T00:05:30;98802.34;;;15.89;100.00
43147;BME280;28752;48.266;7.402;2022-10-15T00:07:56;98808.72;;;15.88;100.00
43147;BME280;28752;48.266;7.402;2022-10-15T00:10:21;98803.38;;;15.88;100.00
43147;BME280;28752;48.266;7.402;2022-10-15T00:12:47;98806.88;;;15.89;100.00
43147;BME280;28752;48.266;7.402;2022-10-15T00:15:13;98804.63;;;15.92;100.00
43147;BME280;28752;48.266;7.402;2022-10-15T00:17:38;98796.38;;;15.87;100.00
43147;BME280;28752;48.266;7.402;2022-10-15T00:20:07;98808.75;;;15.95;100.00
43147;BME280;28752;48.266;7.402;2022-10-15T00:22:33;98803.81;;;15.92;100.00
43147;BME280;28752;48.266;7.402;2022-10-15T00:24:58;98807.94;;;15.94;100.00
43147;BME280;28752;48.266;7.402;2022-10-15T00:27:23;98809.63;;;16.02;100.00
43147;BME280;28752;48.266;7.402;2022-10-15T00:29:49;98800.34;;;15.98;100.00
43147;BME280;28752;48.266;7.402;2022-10-15T00:32:14;98807.47;;;15.91;100.00
43147;BME280;28752;48.266;7.402;2022-10-15T00:34:40;98806.09;;;15.95;100.00
43147;BME280;28752;48.266;7.402;2022-10-15T00:37:06;98800.53;;;15.96;100.00
43147;BME280;28752;48.266;7.402;2022-10-15T00:39:32;98808.13;;;15.93;100.00
43147;BME280;28752;48.266;7.402;2022-10-15T00:41:58;98813.91;;;15.96;100.00
43147;BME280;28752;48.266;7.402;2022-10-15T00:49:33;98798.28;;;16.00;100.00
43147;BME280;28752;48.266;7.402;2022-10-15T00:52:03;98793.94;;;15.92;100.00
43147;BME280;28752;48.266;7.402;2022-10-15T00:54:32;98805.47;;;15.93;100.00
43147;BME280;28752;48.266;7.402;2022-10-15T00:56:59;98812.44;;;15.94;100.00
43147;BME280;28752;48.266;7.402;2022-10-15T00:59:26;98805.25;;;15.94;100.00
43147;BME280;28752;48.266;7.402;2022-10-15T01:01:53;98811.81;;;15.92;100.00
43147;BME280;28752;48.266;7.402;2022-10-15T01:04:19;98809.13;;;15.92;100.00
43147;BME280;28752;48.266;7.402;2022-10-15T01:06:45;98806.47;;;15.92;100.00
43147;BME280;28752;48.266;7.402;2022-10-15T01:09:12;98811.41;;;15.95;100.00
43147;BME280;28752;48.266;7.402;2022-10-15T01:11:44;98811.25;;;16.03;100.00
43147;BME280;28752;48.266;7.402;2022-10-15T01:14:43;98809.22;;;16.05;100.00
43147;BME280;28752;48.266;7.402;2022-10-15T01:17:34;98804.00;;;15.90;100.00
43147;BME280;28752;48.266;7.402;2022-10-15T01:20:26;98803.63;;;16.00;100.00
43147;BME280;28752;48.266;7.402;2022-10-15T01:23:25;98808.75;;;15.95;100.00
43147;BME280;28752;48.266;7.402;2022-10-15T01:26:23;98802.81;;;15.99;100.00
43147;BME280;28752;48.266;7.402;2022-10-15T01:32:20;98806.09;;;16.02;100.00
43147;BME280;28752;48.266;7.402;2022-10-15T01:40:12;98815.78;;;16.03;100.00
43147;BME280;28752;48.266;7.402;2022-10-15T01:42:55;98806.09;;;15.95;100.00
43147;BME280;28752;48.266;7.402;2022-10-15T01:45:31;98809.13;;;15.92;100.00
43147;BME280;28752;48.266;7.402;2022-10-15T01:48:02;98809.97;;;15.92;100.00
43147;BME280;28752;48.266;7.402;2022-10-15T01:50:31;98797.44;;;15.93;100.00
43147;BME280;28752;48.266;7.402;2022-10-15T01:52:59;98817.38;;;15.97;100.00
43147;BME280;28752;48.266;7.402;2022-10-15T01:55:25;98811.41;;;15.95;100.00
43147;BME280;28752;48.266;7.402;2022-10-15T01:57:53;98807.75;;;16.03;100.00
43147;BME280;28752;48.266;7.402;2022-10-15T02:00:20;98809.03;;;16.07;100.00
43147;BME280;28752;48.266;7.402;2022-10-15T02:02:46;98821.16;;;16.09;100.00
43147;BME280;28752;48.266;7.402;2022-10-15T02:05:16;98815.59;;;16.11;100.00
43147;BME280;28752;48.266;7.402;2022-10-15T02:10:30;98823.44;;;16.12;100.00
43147;BME280;28752;48.266;7.402;2022-10-15T02:13:27;98831.47;;;16.12;100.00
43147;BME280;28752;48.266;7.402;2022-10-15T02:16:12;98822.81;;;16.10;100.00
43147;BME280;28752;48.266;7.402;2022-10-15T02:21:11;98837.81;;;16.11;100.00
43147;BME280;28752;48.266;7.402;2022-10-15T02:23:53;98824.47;;;16.11;100.00
43147;BME280;28752;48.266;7.402;2022-10-15T02:26:21;98828.41;;;16.15;100.00
43147;BME280;28752;48.266;7.402;2022-10-15T02:28:53;98839.97;;;16.29;100.00
43147;BME280;28752;48.266;7.402;2022-10-15T02:31:21;98837.50;;;16.28;100.00
43147;BME280;28752;48.266;7.402;2022-10-15T02:33:49;98843.69;;;16.35;100.00
43147;BME280;28752;48.266;7.402;2022-10-15T02:36:17;98825.56;;;16.24;100.00
43147;BME280;28752;48.266;7.402;2022-10-15T02:38:44;98826.16;;;16.26;100.00
43147;BME280;28752;48.266;7.402;2022-10-15T02:41:10;98835.84;;;16.27;100.00
43147;BME280;28752;48.266;7.402;2022-10-15T02:43:37;98842.84;;;16.28;100.00
43147;BME280;28752;48.266;7.402;2022-10-15T02:46:03;98831.69;;;16.17;100.00
43147;BME280;28752;48.266;7.402;2022-10-15T02:48:29;98833.75;;;16.15;100.00
43147;BME280;28752;48.266;7.402;2022-10-15T02:50:55;98839.47;;;16.12;100.00
43147;BME280;28752;48.266;7.402;2022-10-15T02:53:20;98832.69;;;16.10;100.00
43147;BME280;28752;48.266;7.402;2022-10-15T02:55:45;98839.84;;;16.09;100.00
43147;BME280;28752;48.266;7.402;2022-10-15T02:58:11;98834.28;;;16.04;100.00
43147;BME280;28752;48.266;7.402;2022-10-15T03:00:37;98830.59;;;16.05;100.00
43147;BME280;28752;48.266;7.402;2022-10-15T03:03:02;98821.50;;;15.99;100.00
43147;BME280;28752;48.266;7.402;2022-10-15T03:05:27;98829.56;;;16.06;100.00
43147;BME280;28752;48.266;7.402;2022-10-15T03:07:53;98831.56;;;15.97;100.00
43147;BME280;28752;48.266;7.402;2022-10-15T03:10:19;98836.94;;;16.04;100.00
43147;BME280;28752;48.266;7.402;2022-10-15T03:12:44;98839.38;;;15.99;100.00
43147;BME280;28752;48.266;7.402;2022-10-15T03:15:09;98852.75;;;16.06;100.00
43147;BME280;28752;48.266;7.402;2022-10-15T03:17:35;98849.88;;;16.01;100.00
43147;BME280;28752;48.266;7.402;2022-10-15T03:20:00;98861.16;;;16.03;100.00
43147;BME280;28752;48.266;7.402;2022-10-15T03:22:26;98857.09;;;16.07;100.00
43147;BME280;28752;48.266;7.402;2022-10-15T03:24:51;98863.03;;;16.02;100.00
43147;BME280;28752;48.266;7.402;2022-10-15T03:27:17;98851.31;;;16.03;100.00
43147;BME280;28752;48.266;7.402;2022-10-15T03:29:43;98861.97;;;16.03;100.00
43147;BME280;28752;48.266;7.402;2022-10-15T03:32:08;98838.31;;;15.93;100.00
43147;BME280;28752;48.266;7.402;2022-10-15T03:34:33;98851.47;;;15.95;100.00
43147;BME280;28752;48.266;7.402;2022-10-15T03:36:59;98864.22;;;15.99;100.00
43147;BME280;28752;48.266;7.402;2022-10-15T03:39:24;98862.75;;;15.97;100.00
43147;BME280;28752;48.266;7.402;2022-10-15T03:41:52;98866.22;;;15.91;100.00
43147;BME280;28752;48.266;7.402;2022-10-15T03:44:18;98862.72;;;15.90;100.00
43147;BME280;28752;48.266;7.402;2022-10-15T03:46:43;98882.53;;;16.03;100.00
43147;BME280;28752;48.266;7.402;2022-10-15T03:49:10;98869.19;;;16.03;100.00
43147;BME280;28752;48.266;7.402;2022-10-15T03:51:36;98865.00;;;15.93;100.00
43147;BME280;28752;48.266;7.402;2022-10-15T03:54:01;98868.50;;;15.94;100.00
43147;BME280;28752;48.266;7.402;2022-10-15T03:56:27;98863.41;;;15.99;100.00
43147;BME280;28752;48.266;7.402;2022-10-15T03:58:52;98867.88;;;15.92;100.00
43147;BME280;28752;48.266;7.402;2022-10-15T04:01:18;98864.00;;;15.94;100.00
43147;BME280;28752;48.266;7.402;2022-10-15T04:03:43;98863.34;;;15.92;100.00
43147;BME280;28752;48.266;7.402;2022-10-15T04:06:09;98864.63;;;15.96;100.00
43147;BME280;28752;48.266;7.402;2022-10-15T04:08:35;98854.34;;;15.93;100.00
43147;BME280;28752;48.266;7.402;2022-10-15T04:11:00;98861.34;;;15.94;100.00
43147;BME280;28752;48.266;7.402;2022-10-15T04:13:26;98862.72;;;15.90;100.00
43147;BME280;28752;48.266;7.402;2022-10-15T04:15:52;98860.47;;;15.94;100.00
43147;BME280;28752;48.266;7.402;2022-10-15T04:18:17;98870.94;;;15.89;100.00
43147;BME280;28752;48.266;7.402;2022-10-15T04:20:46;98862.34;;;15.93;100.00
43147;BME280;28752;48.266;7.402;2022-10-15T04:23:12;98868.69;;;15.92;100.00
43147;BME280;28752;48.266;7.402;2022-10-15T04:25:38;98863.34;;;15.92;100.00
43147;BME280;28752;48.266;7.402;2022-10-15T04:28:03;98869.97;;;15.96;100.00
43147;BME280;28752;48.266;7.402;2022-10-15T04:30:29;98878.16;;;15.95;100.00
43147;BME280;28752;48.266;7.402;2022-10-15T04:32:54;98875.72;;;16.00;100.00
43147;BME280;28752;48.266;7.402;2022-10-15T04:35:20;98882.34;;;16.04;100.00
43147;BME280;28752;48.266;7.402;2022-10-15T04:37:46;98891.81;;;16.07;100.00
43147;BME280;28752;48.266;7.402;2022-10-15T04:40:11;98876.97;;;15.97;100.00
43147;BME280;28752;48.266;7.402;2022-10-15T04:42:37;98886.00;;;16.03;100.00
43147;BME280;28752;48.266;7.402;2022-10-15T04:45:05;98882.72;;;16.01;100.00
43147;BME280;28752;48.266;7.402;2022-10-15T04:47:30;98881.47;;;15.97;100.00
43147;BME280;28752;48.266;7.402;2022-10-15T04:49:56;98883.69;;;15.93;100.00
43147;BME280;28752;48.266;7.402;2022-10-15T04:52:21;98869.97;;;15.96;100.00
43147;BME280;28752;48.266;7.402;2022-10-15T04:54:46;98880.25;;;15.99;100.00
43147;BME280;28752;48.266;7.402;2022-10-15T04:57:12;98887.69;;;16.04;100.00
43147;BME280;28752;48.266;7.402;2022-10-15T04:59:37;98887.88;;;16.03;100.00
43147;BME280;28752;48.266;7.402;2022-10-15T05:02:02;98890.34;;;16.04;100.00
43147;BME280;28752;48.266;7.402;2022-10-15T05:04:28;98890.94;;;15.99;100.00
43147;BME280;28752;48.266;7.402;2022-10-15T05:06:53;98888.06;;;16.01;100.00
43147;BME280;28752;48.266;7.402;2022-10-15T05:09:19;98884.38;;;16.02;100.00
43147;BME280;28752;48.266;7.402;2022-10-15T05:11:44;98885.59;;;15.99;100.00
43147;BME280;28752;48.266;7.402;2022-10-15T05:14:09;98898.16;;;16.06;100.00
43147;BME280;28752;48.266;7.402;2022-10-15T05:16:35;98892.63;;;16.07;100.00
43147;BME280;28752;48.266;7.402;2022-10-15T05:19:03;98895.50;;;16.06;100.00
43147;BME280;28752;48.266;7.402;2022-10-15T05:21:30;98899.16;;;16.05;100.00
43147;BME280;28752;48.266;7.402;2022-10-15T05:23:57;98898.97;;;16.06;100.00
43147;BME280;28752;48.266;7.402;2022-10-15T05:26:23;98899.16;;;16.05;100.00
43147;BME280;28752;48.266;7.402;2022-10-15T05:28:50;98900.41;;;16.02;100.00
43147;BME280;28752;48.266;7.402;2022-10-15T05:31:19;98911.09;;;16.02;100.00
43147;BME280;28752;48.266;7.402;2022-10-15T05:33:46;98898.50;;;15.96;100.00
43147;BME280;28752;48.266;7.402;2022-10-15T05:38:42;98899.38;;;16.03;100.00
43147;BME280;28752;48.266;7.402;2022-10-15T05:41:07;98900.53;;;15.94;100.00
43147;BME280;28752;48.266;7.402;2022-10-15T05:43:32;98902.59;;;15.92;100.00
43147;BME280;28752;48.266;7.402;2022-10-15T05:45:58;98898.72;;;15.94;100.00
43147;BME280;28752;48.266;7.402;2022-10-15T05:48:23;98898.72;;;15.94;100.00
43147;BME280;28752;48.266;7.402;2022-10-15T05:50:49;98899.94;;;15.98;100.00
43147;BME280;28752;48.266;7.402;2022-10-15T05:53:14;98906.94;;;15.99;100.00
43147;BME280;28752;48.266;7.402;2022-10-15T05:55:39;98902.38;;;15.93;100.00
43147;BME280;28752;48.266;7.402;2022-10-15T05:58:05;98903.00;;;15.95;100.00
43147;BME280;28752;48.266;7.402;2022-10-15T06:00:31;98911.28;;;16.01;100.00
43147;BME280;28752;48.266;7.402;2022-10-15T06:02:57;98913.75;;;16.02;100.00
43147;BME280;28752;48.266;7.402;2022-10-15T06:05:23;98908.81;;;15.99;100.00
43147;BME280;28752;48.266;7.402;2022-10-15T06:07:48;98902.81;;;15.97;100.00
43147;BME280;28752;48.266;7.402;2022-10-15T06:10:13;98904.91;;;16.02;100.00
43147;BME280;28752;48.266;7.402;2022-10-15T06:12:39;98909.22;;;16.03;100.00
43147;BME280;28752;48.266;7.402;2022-10-15T06:15:05;98915.53;;;15.95;100.00
43147;BME280;28752;48.266;7.402;2022-10-15T06:17:31;98924.38;;;15.95;100.00
43147;BME280;28752;48.266;7.402;2022-10-15T06:19:56;98922.59;;;16.03;100.00
43147;BME280;28752;48.266;7.402;2022-10-15T06:22:21;98918.25;;;16.02;100.00
43147;BME280;28752;48.266;7.402;2022-10-15T06:24:47;98920.34;;;16.06;100.00
43147;BME280;28752;48.266;7.402;2022-10-15T06:27:12;98927.59;;;16.12;100.00
43147;BME280;28752;48.266;7.402;2022-10-15T06:29:38;98922.25;;;16.12;100.00
43147;BME280;28752;48.266;7.402;2022-10-15T06:32:07;98942.19;;;16.16;100.00
43147;BME280;28752;48.266;7.402;2022-10-15T06:34:33;98930.31;;;16.19;100.00
43147;BME280;28752;48.266;7.402;2022-10-15T06:36:58;98940.22;;;16.25;100.00
43147;BME280;28752;48.266;7.402;2022-10-15T06:39:23;98942.31;;;16.30;100.00
43147;BME280;28752;48.266;7.402;2022-10-15T06:41:49;98940.91;;;16.34;100.00
43147;BME280;28752;48.266;7.402;2022-10-15T06:44:14;98934.97;;;16.39;100.00
43147;BME280;28752;48.266;7.402;2022-10-15T06:46:40;98930.84;;;16.36;100.00
43147;BME280;28752;48.266;7.402;2022-10-15T06:49:05;98933.50;;;16.36;100.00
43147;BME280;28752;48.266;7.402;2022-10-15T06:51:30;98944.25;;;16.43;100.00
43147;BME280;28752;48.266;7.402;2022-10-15T06:53:56;98946.53;;;16.46;100.00
43147;BME280;28752;48.266;7.402;2022-10-15T06:56:21;98948.34;;;16.45;100.00
43147;BME280;28752;48.266;7.402;2022-10-15T06:58:46;98946.38;;;16.54;100.00
43147;BME280;28752;48.266;7.402;2022-10-15T07:01:12;98951.78;;;16.67;100.00
43147;BME280;28752;48.266;7.402;2022-10-15T07:03:37;98952.66;;;16.75;100.00
43147;BME280;28752;48.266;7.402;2022-10-15T07:06:07;98945.56;;;16.89;100.00
43147;BME280;28752;48.266;7.402;2022-10-15T07:08:33;98946.59;;;16.94;100.00
43147;BME280;28752;48.266;7.402;2022-10-15T07:11:03;98938.41;;;17.02;100.00
43147;BME280;28752;48.266;7.402;2022-10-15T07:13:30;98961.50;;;17.17;100.00
43147;BME280;28752;48.266;7.402;2022-10-15T07:15:55;98959.88;;;17.16;100.00
43147;BME280;28752;48.266;7.402;2022-10-15T07:18:21;98970.94;;;17.06;100.00
43147;BME280;28752;48.266;7.402;2022-10-15T07:20:47;98962.09;;;17.05;100.00
43147;BME280;28752;48.266;7.402;2022-10-15T07:23:12;98965.81;;;17.11;100.00
43147;BME280;28752;48.266;7.402;2022-10-15T07:25:37;98968.72;;;17.16;100.00
43147;BME280;28752;48.266;7.402;2022-10-15T07:28:04;98961.53;;;17.23;100.00
43147;BME280;28752;48.266;7.402;2022-10-15T07:30:29;98961.59;;;17.37;100.00
43147;BME280;28752;48.266;7.402;2022-10-15T07:32:55;98962.22;;;17.46;100.00
43147;BME280;28752;48.266;7.402;2022-10-15T07:35:21;98968.22;;;17.48;100.00
43147;BME280;28752;48.266;7.402;2022-10-15T07:37:46;98958.06;;;17.36;100.00
43147;BME280;28752;48.266;7.402;2022-10-15T07:40:13;98961.75;;;17.35;100.00
43147;BME280;28752;48.266;7.402;2022-10-15T07:42:38;98966.50;;;17.33;100.00
43147;BME280;28752;48.266;7.402;2022-10-15T07:45:05;98962.78;;;17.28;100.00
43147;BME280;28752;48.266;7.402;2022-10-15T07:47:31;98969.13;;;17.20;100.00
43147;BME280;28752;48.266;7.402;2022-10-15T07:49:56;98966.44;;;17.20;100.00
43147;BME280;28752;48.266;7.402;2022-10-15T07:52:21;98959.63;;;17.11;100.00
43147;BME280;28752;48.266;7.402;2022-10-15T07:54:47;98963.69;;;17.00;100.00
43147;BME280;28752;48.266;7.402;2022-10-15T07:57:12;98969.88;;;17.00;100.00
43147;BME280;28752;48.266;7.402;2022-10-15T07:59:38;98970.94;;;17.06;100.00
43147;BME280;28752;48.266;7.402;2022-10-15T08:02:03;98974.88;;;17.10;100.00
43147;BME280;28752;48.266;7.402;2022-10-15T08:04:28;98982.50;;;17.13;100.00
43147;BME280;28752;48.266;7.402;2022-10-15T08:06:54;98991.78;;;17.17;100.00
43147;BME280;28752;48.266;7.402;2022-10-15T08:09:19;98992.78;;;17.10;100.00
43147;BME280;28752;48.266;7.402;2022-10-15T08:11:45;98991.94;;;17.09;100.00
43147;BME280;28752;48.266;7.402;2022-10-15T08:14:10;98998.34;;;17.21;100.00
43147;BME280;28752;48.266;7.402;2022-10-15T08:16:35;98992.84;;;17.30;100.00
43147;BME280;28752;48.266;7.402;2022-10-15T08:19:01;98992.91;;;17.43;100.00
43147;BME280;28752;48.266;7.402;2022-10-15T08:21:26;98990.19;;;17.36;100.00
43147;BME280;28752;48.266;7.402;2022-10-15T08:23:51;98982.22;;;17.56;100.00
43147;BME280;28752;48.266;7.402;2022-10-15T08:26:17;98985.94;;;17.62;100.00
43147;BME280;28752;48.266;7.402;2022-10-15T08:28:43;99001.44;;;17.73;100.00
43147;BME280;28752;48.266;7.402;2022-10-15T08:31:09;99004.09;;;17.80;100.00
43147;BME280;28752;48.266;7.402;2022-10-15T08:33:35;99008.63;;;17.86;100.00
43147;BME280;28752;48.266;7.402;2022-10-15T08:36:03;98993.00;;;17.90;100.00
43147;BME280;28752;48.266;7.402;2022-10-15T08:38:30;98999.00;;;17.99;100.00
43147;BME280;28752;48.266;7.402;2022-10-15T08:40:57;99003.75;;;18.03;100.00
43147;BME280;28752;48.266;7.402;2022-10-15T08:43:29;99015.91;;;18.13;100.00
43147;BME280;28752;48.266;7.402;2022-10-15T08:46:01;99016.13;;;18.18;100.00
43147;BME280;28752;48.266;7.402;2022-10-15T08:48:31;99012.84;;;18.22;100.00
43147;BME280;28752;48.266;7.402;2022-10-15T08:51:13;99014.06;;;18.33;100.00
43147;BME280;28752;48.266;7.402;2022-10-15T08:53:44;99013.88;;;18.35;100.00
43147;BME280;28752;48.266;7.402;2022-10-15T08:56:17;99029.72;;;18.43;100.00
43147;BME280;28752;48.266;7.402;2022-10-15T08:59:18;99018.59;;;18.46;100.00
43147;BME280;28752;48.266;7.402;2022-10-15T09:02:06;99009.72;;;18.65;99.45
43147;BME280;28752;48.266;7.402;2022-10-15T09:04:49;99006.19;;;18.85;98.54
43147;BME280;28752;48.266;7.402;2022-10-15T09:10:36;99009.19;;;19.15;95.04
43147;BME280;28752;48.266;7.402;2022-10-15T09:13:17;98992.94;;;19.04;94.21
43147;BME280;28752;48.266;7.402;2022-10-15T09:18:26;99001.31;;;19.27;92.06
43147;BME280;28752;48.266;7.402;2022-10-15T09:20:55;99008.47;;;19.40;91.96
43147;BME280;28752;48.266;7.402;2022-10-15T09:23:25;99019.53;;;19.64;90.91
43147;BME280;28752;48.266;7.402;2022-10-15T09:26:28;99008.09;;;19.82;90.21
43147;BME280;28752;48.266;7.402;2022-10-15T09:31:25;98999.16;;;20.13;87.52
43147;BME280;28752;48.266;7.402;2022-10-15T09:34:01;98990.56;;;20.30;86.27
43147;BME280;28752;48.266;7.402;2022-10-15T09:36:42;99000.88;;;20.58;85.29
43147;BME280;28752;48.266;7.402;2022-10-15T09:44:38;99013.13;;;20.98;82.45
43147;BME280;28752;48.266;7.402;2022-10-15T09:47:28;99017.47;;;20.99;80.70
43147;BME280;28752;48.266;7.402;2022-10-15T09:49:54;99012.06;;;21.17;80.49
43147;BME280;28752;48.266;7.402;2022-10-15T09:52:33;99019.22;;;21.42;80.01
43147;BME280;28752;48.266;7.402;2022-10-15T09:57:32;99014.59;;;21.49;78.55
43147;BME280;28752;48.266;7.402;2022-10-15T10:00:00;99024.03;;;21.40;77.93
43147;BME280;28752;48.266;7.402;2022-10-15T10:02:27;99023.56;;;21.43;76.18
43147;BME280;28752;48.266;7.402;2022-10-15T10:04:54;99023.56;;;21.43;76.75
43147;BME280;28752;48.266;7.402;2022-10-15T10:07:36;99014.78;;;21.66;75.69
43147;BME280;28752;48.266;7.402;2022-10-15T10:10:37;99015.25;;;21.63;74.52
43147;BME280;28752;48.266;7.402;2022-10-15T10:13:08;99011.78;;;21.74;74.00
43147;BME280;28752;48.266;7.402;2022-10-15T10:15:44;99007.09;;;21.70;72.49
43147;BME280;28752;48.266;7.402;2022-10-15T10:18:23;99022.66;;;21.68;74.06
43147;BME280;28752;48.266;7.402;2022-10-15T10:20:58;99016.91;;;21.64;73.92
43147;BME280;28752;48.266;7.402;2022-10-15T10:23:32;99021.56;;;21.57;73.97
43147;BME280;28752;48.266;7.402;2022-10-15T10:26:00;99010.22;;;21.48;74.42
43147;BME280;28752;48.266;7.402;2022-10-15T10:28:43;99009.81;;;21.33;72.33
43147;BME280;28752;48.266;7.402;2022-10-15T10:31:11;99009.41;;;21.47;73.97
43147;BME280;28752;48.266;7.402;2022-10-15T10:33:48;99003.75;;;21.56;73.75
43147;BME280;28752;48.266;7.402;2022-10-15T10:36:28;99006.41;;;21.74;74.42
43147;BME280;28752;48.266;7.402;2022-10-15T10:41:59;99013.59;;;21.62;70.45
43147;BME280;28752;48.266;7.402;2022-10-15T10:44:37;99014.00;;;21.65;71.62
43147;BME280;28752;48.266;7.402;2022-10-15T10:49:42;99014.38;;;21.51;69.82
43147;BME280;28752;48.266;7.402;2022-10-15T10:52:30;99013.03;;;21.60;72.34
43147;BME280;28752;48.266;7.402;2022-10-15T10:55:00;99027.06;;;21.62;72.48
43147;BME280;28752;48.266;7.402;2022-10-15T11:00:19;99011.88;;;21.49;72.21
43147;BME280;28752;48.266;7.402;2022-10-15T11:02:45;99009.66;;;21.46;72.33
43147;BME280;28752;48.266;7.402;2022-10-15T11:05:11;99005.69;;;21.48;71.56
43147;BME280;28752;48.266;7.402;2022-10-15T11:07:43;99012.16;;;21.29;71.04
43147;BME280;28752;48.266;7.402;2022-10-15T11:10:18;99011.25;;;21.17;70.30
43147;BME280;28752;48.266;7.402;2022-10-15T11:24:10;98992.41;;;20.80;69.32
43147;BME280;28752;48.266;7.402;2022-10-15T11:40:25;98971.41;;;20.45;72.95
43147;BME280;28752;48.266;7.402;2022-10-15T11:48:20;98987.84;;;20.36;69.48
43147;BME280;28752;48.266;7.402;2022-10-15T11:51:03;98993.59;;;20.40;69.87
43147;BME280;28752;48.266;7.402;2022-10-15T11:56:36;98989.31;;;20.32;72.76
43147;BME280;28752;48.266;7.402;2022-10-15T12:01:39;98991.50;;;20.42;72.57
43147;BME280;28752;48.266;7.402;2022-10-15T12:04:31;98987.50;;;20.51;71.84
43147;BME280;28752;48.266;7.402;2022-10-15T12:07:02;98990.78;;;20.53;71.50
43147;BME280;28752;48.266;7.402;2022-10-15T12:09:33;99004.09;;;20.48;71.46
43147;BME280;28752;48.266;7.402;2022-10-15T12:17:24;99005.00;;;20.35;71.55
43147;BME280;28752;48.266;7.402;2022-10-15T12:20:04;99006.75;;;20.23;72.78
43147;BME280;28752;48.266;7.402;2022-10-15T12:22:43;98992.09;;;20.19;73.33
43147;BME280;28752;48.266;7.402;2022-10-15T12:27:59;98992.75;;;19.89;72.41
43147;BME280;28752;48.266;7.402;2022-10-15T12:30:31;98977.25;;;19.91;72.63
43147;BME280;28752;48.266;7.402;2022-10-15T12:32:59;98980.72;;;19.98;74.54
43147;BME280;28752;48.266;7.402;2022-10-15T12:38:24;98997.84;;;19.97;74.42
43147;BME280;28752;48.266;7.402;2022-10-15T12:43:26;98992.84;;;20.01;74.94
43147;BME280;28752;48.266;7.402;2022-10-15T12:45:58;98979.63;;;20.06;74.93
43147;BME280;28752;48.266;7.402;2022-10-15T12:48:29;98990.28;;;20.13;74.87
43147;BME280;28752;48.266;7.402;2022-10-15T12:53:45;98985.25;;;20.23;75.64
43147;BME280;28752;48.266;7.402;2022-10-15T12:58:47;98968.47;;;20.02;75.07
43147;BME280;28752;48.266;7.402;2022-10-15T13:03:58;98970.09;;;20.54;74.97
43147;BME280;28752;48.266;7.402;2022-10-15T13:06:32;98975.84;;;20.57;74.69
43147;BME280;28752;48.266;7.402;2022-10-15T13:09:04;98981.78;;;20.41;71.77
43147;BME280;28752;48.266;7.402;2022-10-15T13:11:32;98980.84;;;20.54;72.79
43147;BME280;28752;48.266;7.402;2022-10-15T13:16:42;98979.09;;;20.66;73.07
43147;BME280;28752;48.266;7.402;2022-10-15T13:19:16;98974.69;;;20.72;71.36
43147;BME280;28752;48.266;7.402;2022-10-15T13:21:52;98975.09;;;20.94;69.05
43147;BME280;28752;48.266;7.402;2022-10-15T13:24:29;98978.06;;;21.04;69.01
43147;BME280;28752;48.266;7.402;2022-10-15T13:27:02;98984.03;;;21.06;68.12
43147;BME280;28752;48.266;7.402;2022-10-15T13:29:37;98978.28;;;21.21;68.71
43147;BME280;28752;48.266;7.402;2022-10-15T13:32:03;98971.53;;;21.30;68.45
43147;BME280;28752;48.266;7.402;2022-10-15T13:34:32;98965.06;;;21.32;67.11
43147;BME280;28752;48.266;7.402;2022-10-15T13:37:01;98970.91;;;21.47;67.28
43147;BME280;28752;48.266;7.402;2022-10-15T13:39:32;98979.28;;;21.57;67.38
43147;BME280;28752;48.266;7.402;2022-10-15T13:42:13;98977.94;;;21.78;67.30
43147;BME280;28752;48.266;7.402;2022-10-15T13:44:39;98979.03;;;22.01;65.95
43147;BME280;28752;48.266;7.402;2022-10-15T13:49:49;98969.78;;;22.09;65.49
43147;BME280;28752;48.266;7.402;2022-10-15T13:52:14;98965.84;;;22.23;64.19
43147;BME280;28752;48.266;7.402;2022-10-15T13:54:43;98963.00;;;22.18;64.60
43147;BME280;28752;48.266;7.402;2022-10-15T13:57:13;98967.13;;;22.21;63.39
43147;BME280;28752;48.266;7.402;2022-10-15T13:59:43;98963.81;;;22.07;63.03
43147;BME280;28752;48.266;7.402;2022-10-15T14:02:10;98957.38;;;21.96;63.18
43147;BME280;28752;48.266;7.402;2022-10-15T14:04:36;98957.78;;;21.81;63.68
43147;BME280;28752;48.266;7.402;2022-10-15T14:07:04;98961.44;;;21.87;65.04
43147;BME280;28752;48.266;7.402;2022-10-15T14:09:45;98960.03;;;21.84;64.88
43147;BME280;28752;48.266;7.402;2022-10-15T14:12:11;98958.00;;;21.68;64.46
43147;BME280;28752;48.266;7.402;2022-10-15T14:17:08;98961.50;;;21.68;63.79
43147;BME280;28752;48.266;7.402;2022-10-15T14:19:37;98957.63;;;21.64;63.81
43147;BME280;28752;48.266;7.402;2022-10-15T14:22:04;98946.91;;;21.45;64.04
43147;BME280;28752;48.266;7.402;2022-10-15T14:24:39;98960.59;;;21.44;64.28
43147;BME280;28752;48.266;7.402;2022-10-15T14:27:07;98963.75;;;21.22;65.15
43147;BME280;28752;48.266;7.402;2022-10-15T14:34:46;98957.47;;;21.28;65.65
43147;BME280;28752;48.266;7.402;2022-10-15T14:42:33;98966.88;;;21.38;65.30
43147;BME280;28752;48.266;7.402;2022-10-15T14:45:09;98963.69;;;21.29;64.87
43147;BME280;28752;48.266;7.402;2022-10-15T14:47:34;98962.50;;;21.25;65.24
43147;BME280;28752;48.266;7.402;2022-10-15T14:50:00;98965.53;;;21.28;65.15
43147;BME280;28752;48.266;7.402;2022-10-15T14:52:28;98962.16;;;21.33;65.09
43147;BME280;28752;48.266;7.402;2022-10-15T14:57:25;98965.38;;;21.42;65.78
43147;BME280;28752;48.266;7.402;2022-10-15T14:59:56;98969.13;;;21.41;65.20
43147;BME280;28752;48.266;7.402;2022-10-15T15:02:24;98973.66;;;21.40;65.04
43147;BME280;28752;48.266;7.402;2022-10-15T15:07:36;98969.63;;;21.50;65.52
43147;BME280;28752;48.266;7.402;2022-10-15T15:10:03;98967.81;;;21.43;65.44